Time;durP1;ratioP1;P1;durP2;ratioP2;P2;SDS_P1;SDS_P2;PMS_P1;PMS_P2;Temp;Humidity;BMP_temperature;BMP_pressure;BME280_temperature;BME280_humidity;BME280_pressure;Samples;Min_cycle;Max_cycle;Signal;HPM_P1;HPM_P2
2021/06/08 00:05:09;;;;;;;8.90;3.17;;;16.40;99.90;;;;;;21008030;28;20040;-50
2021/06/08 00:15:11;;;;;;;8.05;3.33;;;16.40;99.90;;;;;;21011956;28;20079;-50
2021/06/08 00:25:12;;;;;;;7.30;3.20;;;16.30;99.90;;;;;;21024577;28;20048;-50
2021/06/08 00:35:14;;;;;;;8.98;2.75;;;16.30;99.90;;;;;;21024378;28;20063;-49
2021/06/08 00:45:15;;;;;;;8.38;3.50;;;16.20;99.90;;;;;;21000619;28;20032;-50
2021/06/08 00:55:16;;;;;;;9.30;4.05;;;16.10;99.90;;;;;;21024662;28;20173;-50
2021/06/08 01:05:18;;;;;;;7.53;3.58;;;16.00;99.90;;;;;;21018403;28;20049;-50
2021/06/08 01:15:21;;;;;;;8.63;3.35;;;15.90;99.90;;;;;;21018919;28;20135;-50
2021/06/08 01:25:22;;;;;;;7.07;3.35;;;15.90;99.90;;;;;;21017284;28;20055;-50
2021/06/08 01:35:24;;;;;;;7.18;3.35;;;15.80;99.90;;;;;;21019933;28;20047;-50
2021/06/08 01:45:26;;;;;;;7.45;3.42;;;15.70;99.90;;;;;;21017526;28;20055;-50
2021/06/08 01:55:32;;;;;;;6.70;2.65;;;15.50;99.90;;;;;;21013941;28;20200;-50
2021/06/08 02:05:45;;;;;;;7.07;3.50;;;15.40;99.90;;;;;;21016378;28;20040;-50
2021/06/08 02:16:01;;;;;;;9.80;3.03;;;15.20;99.90;;;;;;21018052;28;20383;-50
2021/06/08 02:26:04;;;;;;;5.13;2.83;;;15.20;99.90;;;;;;21020044;28;20032;-50
2021/06/08 02:36:06;;;;;;;9.82;2.95;;;15.10;99.90;;;;;;21012761;28;20047;-50
2021/06/08 02:46:09;;;;;;;6.97;3.28;;;15.00;99.90;;;;;;21009518;28;20139;-49
2021/06/08 02:56:11;;;;;;;6.00;3.03;;;14.90;99.90;;;;;;21014059;28;20048;-50
2021/06/08 03:06:17;;;;;;;6.50;3.08;;;14.70;99.90;;;;;;21009961;28;20043;-50
2021/06/08 03:16:21;;;;;;;5.22;2.17;;;14.70;99.90;;;;;;21015286;28;20040;-50
2021/06/08 03:26:23;;;;;;;6.28;2.78;;;14.50;99.90;;;;;;21006563;28;20040;-50
2021/06/08 03:36:28;;;;;;;8.55;3.63;;;14.40;99.90;;;;;;21009428;28;20051;-50
2021/06/08 03:46:30;;;;;;;8.10;2.83;;;14.30;99.90;;;;;;21009293;28;20044;-51
2021/06/08 03:56:33;;;;;;;5.13;2.42;;;14.20;99.90;;;;;;21027904;28;20071;-52
2021/06/08 04:06:35;;;;;;;4.88;2.80;;;14.20;99.90;;;;;;21027580;28;20044;-52
2021/06/08 04:16:38;;;;;;;11.00;3.65;;;14.10;99.90;;;;;;21020219;28;20059;-52
2021/06/08 04:26:40;;;;;;;6.13;2.80;;;14.00;99.90;;;;;;21024771;28;20051;-52
2021/06/08 04:36:41;;;;;;;6.13;2.47;;;14.10;99.90;;;;;;21020420;28;20503;-52
2021/06/08 04:46:42;;;;;;;6.28;3.08;;;14.10;99.90;;;;;;21023441;28;20040;-52
2021/06/08 04:56:43;;;;;;;6.80;2.95;;;14.30;99.90;;;;;;21021697;28;20052;-49
2021/06/08 05:06:54;;;;;;;5.72;2.70;;;14.50;99.90;;;;;;21021020;28;20051;-52
2021/06/08 05:16:56;;;;;;;5.85;2.40;;;14.70;99.90;;;;;;21020796;28;20058;-52
2021/06/08 05:26:57;;;;;;;5.90;2.15;;;15.10;99.90;;;;;;21020298;28;20040;-49
2021/06/08 05:37:07;;;;;;;7.15;2.88;;;15.50;99.90;;;;;;21012708;28;20067;-49
2021/06/08 05:47:09;;;;;;;4.45;2.03;;;15.80;99.90;;;;;;21017416;28;20044;-49
2021/06/08 05:57:10;;;;;;;3.88;2.08;;;16.00;99.90;;;;;;21013650;28;20059;-49
2021/06/08 06:07:13;;;;;;;5.10;2.08;;;16.50;99.90;;;;;;21019636;28;20047;-50
2021/06/08 06:17:15;;;;;;;6.05;2.35;;;16.90;99.90;;;;;;21021871;28;20051;-50
2021/06/08 06:27:18;;;;;;;3.20;1.60;;;17.30;99.90;;;;;;21021246;28;20059;-50
2021/06/08 06:37:24;;;;;;;3.88;1.85;;;17.70;99.90;;;;;;21018910;28;20051;-51
2021/06/08 06:47:41;;;;;;;4.97;1.80;;;18.20;99.90;;;;;;20965245;28;20040;-50
2021/06/08 06:57:43;;;;;;;4.32;1.83;;;18.00;99.90;;;;;;21021655;28;20475;-50
2021/06/08 07:07:46;;;;;;;1.52;0.93;;;18.40;99.90;;;;;;21012662;28;20043;-50
2021/06/08 07:17:47;;;;;;;3.85;1.08;;;18.70;99.90;;;;;;21000457;28;20181;-48
2021/06/08 07:27:50;;;;;;;2.85;1.30;;;18.60;99.90;;;;;;21019298;28;20640;-48
2021/06/08 07:37:53;;;;;;;2.38;0.95;;;18.90;99.90;;;;;;21021916;28;20101;-48
2021/06/08 07:47:58;;;;;;;3.50;1.30;;;19.20;99.90;;;;;;21026131;28;20039;-49
2021/06/08 07:57:59;;;;;;;4.85;1.33;;;19.40;99.90;;;;;;21038403;28;20059;-48
2021/06/08 08:08:01;;;;;;;2.25;0.40;;;19.40;99.90;;;;;;21018914;28;20037;-48
2021/06/08 08:18:04;;;;;;;5.38;1.50;;;19.90;99.90;;;;;;21011434;28;20174;-48
2021/06/08 08:28:09;;;;;;;1.60;0.52;;;20.10;99.90;;;;;;21019974;28;20039;-49
2021/06/08 08:38:13;;;;;;;1.23;0.70;;;20.60;99.90;;;;;;21028752;28;20048;-48
2021/06/08 08:48:14;;;;;;;0.60;0.30;;;20.90;99.90;;;;;;21019771;28;20044;-48
2021/06/08 08:58:17;;;;;;;1.05;0.63;;;21.00;99.90;;;;;;21020520;28;20044;-48
2021/06/08 09:08:19;;;;;;;1.02;0.50;;;21.40;99.90;;;;;;21026776;28;20148;-48
2021/06/08 09:18:23;;;;;;;5.25;2.20;;;21.60;99.90;;;;;;21012878;28;20106;-48
2021/06/08 09:28:26;;;;;;;1.58;0.80;;;21.90;99.90;;;;;;21012367;28;20166;-48
2021/06/08 09:38:51;;;;;;;1.15;0.50;;;22.30;99.90;;;;;;20989585;28;20044;-48
2021/06/08 09:48:55;;;;;;;2.65;0.68;;;22.40;99.90;;;;;;21023029;28;20036;-49
2021/06/08 09:58:57;;;;;;;0.90;0.38;;;22.80;98.10;;;;;;20995686;28;20071;-49
2021/06/08 10:09:12;;;;;;;2.33;0.25;;;23.10;97.60;;;;;;21019188;28;20522;-49
2021/06/08 10:19:27;;;;;;;1.08;0.50;;;23.00;98.60;;;;;;21010151;28;20048;-49
2021/06/08 10:29:34;;;;;;;1.85;0.60;;;23.70;97.90;;;;;;21015164;28;20036;-49
2021/06/08 10:39:36;;;;;;;1.80;0.77;;;23.80;98.10;;;;;;21014665;28;20036;-49
2021/06/08 10:49:42;;;;;;;2.05;0.93;;;23.70;96.70;;;;;;21011372;28;20062;-49
2021/06/08 10:59:46;;;;;;;1.05;0.40;;;24.80;97.40;;;;;;21016329;28;20055;-49
2021/06/08 11:09:47;;;;;;;1.23;0.65;;;24.70;95.30;;;;;;21018252;28;20055;-49
2021/06/08 11:20:12;;;;;;;1.08;0.50;;;24.30;94.60;;;;;;21015846;28;20054;-49
2021/06/08 11:30:35;;;;;;;1.70;0.70;;;24.40;95.20;;;;;;21019430;28;20061;-49
2021/06/08 11:40:37;;;;;;;1.80;0.68;;;24.30;97.70;;;;;;21014055;28;20035;-49
2021/06/08 11:50:44;;;;;;;1.58;0.73;;;25.20;94.60;;;;;;21035090;28;20036;-49
2021/06/08 12:00:52;;;;;;;1.80;0.73;;;25.30;94.00;;;;;;21038659;28;20510;-49
2021/06/08 12:10:54;;;;;;;0.90;0.43;;;24.70;93.40;;;;;;21042073;28;20051;-49
2021/06/08 12:20:56;;;;;;;4.00;0.63;;;25.20;93.30;;;;;;21055340;28;20050;-49
2021/06/08 12:31:18;;;;;;;2.40;1.30;;;25.20;94.60;;;;;;21052344;28;20032;-49
2021/06/08 12:41:23;;;;;;;1.38;0.52;;;25.50;92.20;;;;;;21051219;28;20158;-49
2021/06/08 12:51:41;;;;;;;1.30;0.65;;;25.20;94.20;;;;;;21052311;28;20044;-49
2021/06/08 13:01:45;;;;;;;1.60;0.60;;;25.40;92.30;;;;;;21042739;28;20477;-49
2021/06/08 13:11:46;;;;;;;1.02;0.50;;;25.10;92.70;;;;;;21041213;28;20063;-49
2021/06/08 13:21:49;;;;;;;2.38;0.82;;;25.50;94.10;;;;;;21050186;28;20142;-49
2021/06/08 13:31:55;;;;;;;1.27;0.90;;;25.90;94.80;;;;;;21051612;28;20113;-49
2021/06/08 13:41:56;;;;;;;1.33;0.60;;;26.10;92.40;;;;;;21050522;28;20036;-49
2021/06/08 13:51:59;;;;;;;1.13;0.47;;;26.00;93.70;;;;;;21051429;28;20044;-49
2021/06/08 14:02:04;;;;;;;1.33;0.60;;;25.40;93.70;;;;;;21047802;28;20036;-49
2021/06/08 14:12:06;;;;;;;1.48;0.80;;;24.90;94.40;;;;;;21024007;28;20039;-49
2021/06/08 14:22:08;;;;;;;1.63;0.93;;;24.90;96.60;;;;;;21037914;28;20044;-49
2021/06/08 14:32:10;;;;;;;2.72;0.85;;;25.00;94.70;;;;;;21006499;28;20055;-50
2021/06/08 14:42:11;;;;;;;2.17;0.73;;;24.50;95.10;;;;;;21039238;28;20036;-49
2021/06/08 14:52:12;;;;;;;1.45;0.65;;;24.70;94.90;;;;;;21031086;28;20051;-49
2021/06/08 15:02:16;;;;;;;1.90;1.05;;;25.00;95.40;;;;;;21035461;28;20059;-49
2021/06/08 15:12:17;;;;;;;1.45;0.73;;;25.10;93.70;;;;;;21032915;28;20044;-49
2021/06/08 15:22:19;;;;;;;1.77;1.10;;;24.80;94.40;;;;;;21038430;28;20062;-49
2021/06/08 15:32:20;;;;;;;1.10;0.50;;;24.50;95.50;;;;;;21027616;28;20052;-49
2021/06/08 15:42:22;;;;;;;2.03;0.68;;;24.40;95.40;;;;;;21036587;28;20048;-49
2021/06/08 15:52:23;;;;;;;16.40;5.55;;;24.20;95.50;;;;;;21046805;28;20135;-49
2021/06/08 16:02:25;;;;;;;1.10;0.57;;;24.60;95.50;;;;;;21050148;28;20222;-49
2021/06/08 16:12:26;;;;;;;2.00;0.85;;;24.30;95.30;;;;;;21050097;28;20196;-49
2021/06/08 16:22:27;;;;;;;1.60;0.75;;;24.10;96.20;;;;;;21036688;28;20624;-49
2021/06/08 16:32:28;;;;;;;1.75;0.75;;;23.90;96.60;;;;;;21045442;28;20059;-49
2021/06/08 16:42:30;;;;;;;1.02;0.50;;;24.10;96.30;;;;;;21044244;28;20050;-49
2021/06/08 17:02:51;;;;;;;1.20;0.50;;;23.40;98.20;;;;;;21043946;28;20055;-49
2021/06/08 17:12:52;;;;;;;1.08;0.40;;;23.00;97.10;;;;;;21005706;28;20206;-49
2021/06/08 17:22:54;;;;;;;1.75;1.00;;;22.80;98.10;;;;;;21035631;28;20051;-49
2021/06/08 17:32:55;;;;;;;1.33;0.40;;;22.80;97.70;;;;;;21029980;28;20044;-49
2021/06/08 17:42:56;;;;;;;0.70;0.40;;;22.60;97.40;;;;;;21028016;28;20036;-49
2021/06/08 17:52:57;;;;;;;1.38;0.57;;;22.60;96.80;;;;;;21028576;28;20047;-49
2021/06/08 18:02:59;;;;;;;2.15;1.10;;;22.80;96.80;;;;;;21032783;28;20056;-49
2021/06/08 18:13:01;;;;;;;0.85;0.40;;;22.60;96.80;;;;;;21032079;28;20043;-49
2021/06/08 18:23:03;;;;;;;1.98;0.52;;;22.40;97.10;;;;;;21029405;28;20069;-49
2021/06/08 18:33:04;;;;;;;0.98;0.40;;;22.50;96.40;;;;;;21037364;28;20040;-49
2021/06/08 18:43:05;;;;;;;0.85;0.45;;;22.30;97.10;;;;;;21042172;28;20036;-49
2021/06/08 18:53:07;;;;;;;1.17;0.50;;;22.20;96.90;;;;;;21026833;28;20044;-48
2021/06/08 19:03:09;;;;;;;1.63;0.30;;;22.10;97.30;;;;;;21001781;28;20052;-48
2021/06/08 19:13:10;;;;;;;1.50;0.75;;;21.90;98.00;;;;;;21028836;28;20063;-48
2021/06/08 19:23:12;;;;;;;2.67;1.15;;;21.70;98.10;;;;;;21026862;28;20032;-48
2021/06/08 19:33:13;;;;;;;1.13;0.40;;;21.60;98.20;;;;;;21027277;28;20071;-48
2021/06/08 19:43:14;;;;;;;0.60;0.40;;;21.50;99.40;;;;;;21025220;28;20071;-48
2021/06/08 19:53:21;;;;;;;0.98;0.30;;;21.30;99.90;;;;;;21025955;28;20127;-48
2021/06/08 20:03:22;;;;;;;0.80;0.43;;;21.10;99.90;;;;;;21022134;28;20067;-48
2021/06/08 20:13:24;;;;;;;1.33;0.40;;;21.10;99.90;;;;;;21004133;28;20044;-48
2021/06/08 20:23:25;;;;;;;1.17;0.45;;;20.70;99.90;;;;;;20997888;28;20178;-48
2021/06/08 20:33:27;;;;;;;1.85;0.70;;;20.40;99.90;;;;;;21009445;28;20094;-48
2021/06/08 20:43:28;;;;;;;4.63;1.20;;;20.10;99.90;;;;;;21018790;28;20046;-48
2021/06/08 20:53:30;;;;;;;2.80;0.93;;;20.00;99.90;;;;;;21012060;28;20040;-48
2021/06/08 21:03:31;;;;;;;1.73;0.60;;;19.70;99.90;;;;;;21014811;28;20051;-48
2021/06/08 21:13:33;;;;;;;1.60;0.90;;;19.50;99.90;;;;;;21011976;28;20047;-48
2021/06/08 21:23:34;;;;;;;1.38;0.70;;;19.20;99.90;;;;;;21019058;28;20064;-48
2021/06/08 21:33:35;;;;;;;1.73;0.80;;;19.00;99.90;;;;;;21014976;28;20040;-48
2021/06/08 21:43:36;;;;;;;1.85;0.80;;;18.90;99.90;;;;;;21017021;28;20051;-48
2021/06/08 21:53:37;;;;;;;2.85;1.02;;;18.70;99.90;;;;;;21022393;28;20036;-48
2021/06/08 22:03:38;;;;;;;2.08;0.85;;;18.60;99.90;;;;;;21032843;28;20078;-48
2021/06/08 22:13:39;;;;;;;5.03;1.30;;;18.40;99.90;;;;;;21037597;28;20090;-48
2021/06/08 22:23:41;;;;;;;2.10;1.13;;;18.20;99.90;;;;;;21035871;28;20097;-48
2021/06/08 22:33:42;;;;;;;2.05;1.05;;;18.20;99.90;;;;;;21040403;28;20418;-48
2021/06/08 22:43:43;;;;;;;3.50;1.85;;;18.20;99.90;;;;;;21034291;28;20067;-48
2021/06/08 22:53:44;;;;;;;4.55;2.15;;;18.10;99.90;;;;;;21036673;28;22628;-48
2021/06/08 23:03:46;;;;;;;4.05;2.10;;;17.90;99.90;;;;;;21036105;28;20047;-48
2021/06/08 23:13:47;;;;;;;4.63;2.25;;;17.90;99.90;;;;;;21034100;28;20135;-48
2021/06/08 23:23:49;;;;;;;4.82;2.03;;;17.70;99.90;;;;;;21034219;28;20044;-48
2021/06/08 23:33:50;;;;;;;3.97;2.13;;;17.70;99.90;;;;;;21035083;28;20040;-48
2021/06/08 23:43:51;;;;;;;4.32;2.25;;;17.70;99.90;;;;;;21032531;28;20282;-48
2021/06/08 23:53:53;;;;;;;6.05;2.97;;;17.60;99.90;;;;;;21034612;28;20044;-48
